Time;durP1;ratioP1;P1;durP2;ratioP2;P2;SDS_P1;SDS_P2;PMS_P1;PMS_P2;Temp;Humidity;BMP_temperature;BMP_pressure;BME280_temperature;BME280_humidity;BME280_pressure;Samples;Min_cycle;Max_cycle;Signal;HPM_P1;HPM_P2
2022/07/25 00:00:00;;;;;;;6.85;3.90;;;27.90;71.20;;;;;;5054086;28;20209;-78
2022/07/25 00:02:29;;;;;;;7.75;3.67;;;27.80;71.30;;;;;;5047759;28;20190;-79
2022/07/25 00:04:57;;;;;;;5.88;4.30;;;27.90;71.60;;;;;;5055152;28;20266;-78
2022/07/25 00:07:26;;;;;;;6.55;3.78;;;27.90;71.40;;;;;;5055857;28;20186;-78
2022/07/25 00:09:54;;;;;;;6.60;4.03;;;27.80;71.10;;;;;;5059107;28;20874;-80
2022/07/25 00:12:23;;;;;;;7.25;4.45;;;27.90;71.30;;;;;;5053642;28;20215;-78
2022/07/25 00:14:51;;;;;;;5.55;3.85;;;27.90;71.20;;;;;;5066862;28;20187;-77
2022/07/25 00:17:21;;;;;;;7.07;4.15;;;27.90;71.10;;;;;;5050573;28;20226;-77
2022/07/25 00:19:50;;;;;;;10.98;4.93;;;27.90;71.10;;;;;;5044435;28;20230;-80
2022/07/25 00:22:18;;;;;;;10.50;4.05;;;27.90;71.10;;;;;;5066135;28;20404;-78
2022/07/25 00:24:46;;;;;;;8.20;4.57;;;28.00;71.00;;;;;;5058080;28;20667;-79
2022/07/25 00:27:15;;;;;;;6.72;4.20;;;27.90;71.10;;;;;;5052734;28;20286;-77
2022/07/25 00:29:43;;;;;;;9.43;3.97;;;28.00;71.10;;;;;;5053466;28;20194;-79
2022/07/25 00:32:12;;;;;;;7.35;4.60;;;28.00;71.30;;;;;;5051614;28;20828;-77
2022/07/25 00:34:41;;;;;;;6.63;4.60;;;28.00;71.20;;;;;;5047373;28;20829;-78
2022/07/25 00:37:10;;;;;;;10.90;4.82;;;28.00;71.10;;;;;;5048958;28;20203;-78
2022/07/25 00:39:38;;;;;;;10.40;4.80;;;28.00;71.30;;;;;;5055186;28;20199;-77
2022/07/25 00:42:07;;;;;;;6.65;4.20;;;28.00;71.30;;;;;;5062175;28;20191;-79
2022/07/25 00:44:35;;;;;;;10.20;5.15;;;28.00;71.30;;;;;;5046392;28;20202;-76
2022/07/25 00:47:04;;;;;;;11.07;4.80;;;28.00;71.30;;;;;;5056158;28;20222;-78
2022/07/25 00:49:33;;;;;;;6.25;4.60;;;28.00;71.60;;;;;;5062210;28;20199;-79
2022/07/25 00:52:03;;;;;;;6.55;4.15;;;28.00;71.50;;;;;;5048728;28;20199;-78
2022/07/25 00:54:32;;;;;;;9.40;3.95;;;28.00;71.40;;;;;;5044275;28;20211;-80
2022/07/25 00:57:00;;;;;;;7.88;4.68;;;28.00;71.60;;;;;;5046411;28;20196;-80
2022/07/25 00:59:29;;;;;;;5.20;3.90;;;28.00;71.70;;;;;;5045961;28;20707;-81
2022/07/25 01:01:57;;;;;;;7.45;4.60;;;28.00;71.60;;;;;;5051864;28;20199;-79
2022/07/25 01:04:31;;;;;;;5.50;3.53;;;28.00;71.50;;;;;;5045008;28;20238;-83
2022/07/25 01:07:00;;;;;;;8.57;4.22;;;28.00;71.40;;;;;;5055704;28;20683;-79
2022/07/25 01:09:30;;;;;;;6.38;3.90;;;28.00;71.30;;;;;;5049653;28;20431;-80
2022/07/25 01:11:59;;;;;;;8.95;3.75;;;28.00;71.30;;;;;;5043819;28;20209;-80
2022/07/25 01:14:27;;;;;;;5.97;4.32;;;28.00;71.30;;;;;;5047348;28;20210;-80
2022/07/25 01:16:56;;;;;;;7.40;4.63;;;28.00;71.40;;;;;;5051024;28;20198;-80
2022/07/25 01:19:24;;;;;;;4.68;3.53;;;28.00;71.30;;;;;;5046679;28;20218;-80
2022/07/25 01:21:55;;;;;;;6.13;3.65;;;28.00;71.20;;;;;;5043469;28;20187;-79
2022/07/25 01:24:23;;;;;;;7.60;3.80;;;27.90;71.30;;;;;;5049181;28;20201;-79
2022/07/25 01:26:52;;;;;;;5.25;3.55;;;27.90;71.60;;;;;;5054698;28;20199;-80
2022/07/25 01:29:20;;;;;;;5.00;3.47;;;27.90;71.90;;;;;;5060253;28;20290;-78
2022/07/25 01:31:49;;;;;;;5.70;3.85;;;27.90;72.10;;;;;;5062435;28;20202;-78
2022/07/25 01:34:17;;;;;;;5.40;3.33;;;27.90;72.10;;;;;;5053276;28;20207;-79
2022/07/25 01:36:46;;;;;;;6.25;3.60;;;27.90;72.20;;;;;;5058397;28;20258;-78
2022/07/25 01:39:15;;;;;;;5.90;3.50;;;27.80;71.80;;;;;;5058080;28;20195;-79
2022/07/25 01:41:44;;;;;;;4.35;3.33;;;27.80;71.70;;;;;;5064787;28;20202;-78
2022/07/25 01:44:12;;;;;;;5.70;3.83;;;27.80;71.70;;;;;;5062255;28;20734;-79
2022/07/25 01:46:41;;;;;;;8.90;3.97;;;27.80;71.60;;;;;;5057097;28;20201;-78
2022/07/25 01:49:09;;;;;;;8.38;3.72;;;27.80;71.70;;;;;;5042102;28;20649;-78
2022/07/25 01:51:38;;;;;;;4.50;3.47;;;27.80;72.50;;;;;;5045484;28;20256;-79
2022/07/25 01:54:06;;;;;;;6.38;3.78;;;27.70;72.10;;;;;;5053097;28;20222;-78
2022/07/25 01:56:43;;;;;;;5.47;3.80;;;27.70;72.10;;;;;;5048845;28;20656;-78
2022/07/25 01:59:15;;;;;;;6.15;3.78;;;27.70;72.20;;;;;;5052147;28;20202;-80
2022/07/25 02:01:44;;;;;;;6.55;3.83;;;27.70;72.00;;;;;;5053848;28;20571;-80
2022/07/25 02:04:12;;;;;;;4.95;3.40;;;27.70;72.10;;;;;;5047815;28;20260;-80
2022/07/25 02:06:41;;;;;;;5.72;3.47;;;27.70;72.50;;;;;;5053726;28;20241;-81
2022/07/25 02:09:09;;;;;;;8.00;3.72;;;27.70;72.70;;;;;;5054718;28;20230;-81
2022/07/25 02:11:39;;;;;;;6.13;4.05;;;27.60;72.60;;;;;;5044370;28;20291;-81
2022/07/25 02:14:08;;;;;;;5.30;3.80;;;27.60;72.70;;;;;;5045621;28;20214;-82
2022/07/25 02:16:37;;;;;;;7.20;3.85;;;27.60;72.80;;;;;;5043420;28;20290;-83
2022/07/25 02:19:05;;;;;;;8.88;4.03;;;27.50;72.70;;;;;;5038020;28;20371;-83
2022/07/25 02:21:34;;;;;;;6.55;4.10;;;27.50;73.00;;;;;;5041597;28;20203;-81
2022/07/25 02:24:03;;;;;;;7.15;4.43;;;27.50;73.50;;;;;;5040324;28;20637;-81
2022/07/25 02:26:32;;;;;;;9.07;4.53;;;27.50;73.80;;;;;;5038612;28;20195;-80
2022/07/25 02:29:02;;;;;;;6.57;4.22;;;27.40;74.30;;;;;;5052187;28;20195;-81
2022/07/25 02:31:30;;;;;;;6.35;4.20;;;27.30;74.80;;;;;;5047216;28;20274;-81
2022/07/25 02:33:59;;;;;;;6.32;4.35;;;27.30;75.10;;;;;;5043970;28;20206;-80
2022/07/25 02:36:27;;;;;;;7.25;4.95;;;27.20;75.40;;;;;;5048947;28;20490;-81
2022/07/25 02:38:57;;;;;;;6.35;4.45;;;27.10;75.60;;;;;;5045168;28;20291;-81
2022/07/25 02:41:25;;;;;;;8.25;4.68;;;27.10;75.90;;;;;;5042697;28;20650;-83
2022/07/25 02:43:54;;;;;;;6.70;4.35;;;27.00;76.00;;;;;;5053833;28;20355;-82
2022/07/25 02:46:24;;;;;;;8.48;5.13;;;27.00;76.40;;;;;;5038414;28;20270;-85
2022/07/25 02:48:53;;;;;;;7.43;5.07;;;27.00;76.80;;;;;;5039067;28;20583;-82
2022/07/25 02:51:21;;;;;;;7.50;4.95;;;26.90;76.60;;;;;;5036637;28;20286;-83
2022/07/25 02:53:52;;;;;;;8.45;5.15;;;26.90;76.80;;;;;;5040632;28;20966;-84
2022/07/25 02:56:25;;;;;;;7.22;5.05;;;26.80;76.80;;;;;;5039633;28;20233;-82
2022/07/25 02:58:57;;;;;;;10.80;5.05;;;26.80;76.90;;;;;;5032571;28;20198;-82
2022/07/25 03:01:27;;;;;;;6.40;4.75;;;26.80;77.00;;;;;;5044280;28;20205;-82
2022/07/25 03:03:56;;;;;;;9.18;5.45;;;26.80;77.10;;;;;;5044614;28;20178;-82
2022/07/25 03:06:25;;;;;;;7.53;5.03;;;26.80;77.20;;;;;;5047013;28;20237;-82
2022/07/25 03:08:53;;;;;;;9.55;4.90;;;26.80;77.30;;;;;;5038597;28;20231;-82
2022/07/25 03:11:22;;;;;;;11.68;6.13;;;26.80;77.50;;;;;;5049619;28;20210;-82
2022/07/25 03:13:50;;;;;;;7.95;5.15;;;26.70;77.60;;;;;;5044893;28;20205;-82
2022/07/25 03:16:19;;;;;;;6.63;4.95;;;26.70;78.60;;;;;;5052545;28;20208;-82
2022/07/25 03:18:49;;;;;;;6.53;4.75;;;26.70;77.90;;;;;;5043454;28;20248;-84
2022/07/25 03:21:17;;;;;;;9.05;5.25;;;26.70;78.10;;;;;;5045972;28;20281;-82
2022/07/25 03:23:46;;;;;;;8.27;5.00;;;26.70;78.40;;;;;;5039237;28;20234;-83
2022/07/25 03:26:20;;;;;;;8.57;5.15;;;26.70;78.30;;;;;;5052691;28;20202;-84
2022/07/25 03:28:49;;;;;;;9.38;5.38;;;26.70;78.40;;;;;;5040666;28;20191;-83
2022/07/25 03:31:17;;;;;;;10.35;5.20;;;26.70;78.30;;;;;;5041223;28;20259;-84
2022/07/25 03:33:48;;;;;;;8.05;5.07;;;26.70;78.30;;;;;;5046793;28;20214;-83
2022/07/25 03:36:18;;;;;;;8.35;5.10;;;26.70;78.30;;;;;;5047527;28;20199;-83
2022/07/25 03:38:46;;;;;;;8.23;5.45;;;26.70;78.00;;;;;;5046485;28;20209;-84
2022/07/25 03:41:15;;;;;;;8.15;4.72;;;26.70;77.90;;;;;;5044630;28;20351;-82
2022/07/25 03:43:43;;;;;;;7.90;5.35;;;26.70;77.70;;;;;;5044184;28;20286;-83
2022/07/25 03:46:12;;;;;;;7.20;4.90;;;26.80;77.80;;;;;;5036994;28;20194;-82
2022/07/25 03:48:41;;;;;;;7.03;5.13;;;26.70;77.60;;;;;;5046123;28;20654;-82
2022/07/25 03:51:11;;;;;;;7.00;5.07;;;26.80;77.60;;;;;;5041162;28;20223;-81
2022/07/25 03:56:22;;;;;;;8.15;5.28;;;26.80;77.40;;;;;;5041488;28;20204;-81
2022/07/25 03:58:50;;;;;;;7.10;4.95;;;26.80;77.50;;;;;;5037645;28;20233;-81
2022/07/25 04:01:19;;;;;;;8.15;5.05;;;26.80;78.10;;;;;;5039160;28;20621;-81
2022/07/25 04:03:49;;;;;;;8.43;5.63;;;26.90;77.50;;;;;;5045226;28;20196;-80
2022/07/25 04:06:19;;;;;;;8.20;4.60;;;26.90;77.70;;;;;;5038046;28;20226;-81
2022/07/25 04:08:48;;;;;;;8.43;5.55;;;26.90;77.70;;;;;;5036770;28;20213;-82
2022/07/25 04:11:16;;;;;;;7.75;5.32;;;26.90;77.70;;;;;;5033389;28;20218;-82
2022/07/25 04:13:45;;;;;;;8.95;5.03;;;26.90;77.80;;;;;;5037206;28;20206;-81
2022/07/25 04:16:14;;;;;;;8.15;4.43;;;26.90;77.80;;;;;;5036535;28;20304;-81
2022/07/25 04:18:49;;;;;;;10.35;5.70;;;26.90;77.80;;;;;;5039717;28;20278;-80
2022/07/25 04:21:20;;;;;;;7.25;5.45;;;26.90;77.90;;;;;;5036498;28;20273;-81
2022/07/25 04:23:48;;;;;;;8.75;4.88;;;26.90;78.00;;;;;;5037700;28;20206;-80
2022/07/25 04:26:17;;;;;;;11.57;5.68;;;26.90;77.90;;;;;;5041829;28;20202;-82
2022/07/25 04:28:46;;;;;;;8.00;5.30;;;26.90;78.10;;;;;;5041206;28;20305;-81
2022/07/25 04:31:15;;;;;;;10.13;5.65;;;26.90;78.00;;;;;;5042644;28;20711;-83
2022/07/25 04:33:44;;;;;;;8.02;5.40;;;26.90;78.80;;;;;;5035284;28;21095;-82
2022/07/25 04:36:13;;;;;;;8.73;5.90;;;26.90;78.00;;;;;;5036171;28;20320;-82
2022/07/25 04:38:43;;;;;;;7.80;5.43;;;26.80;78.10;;;;;;5039008;28;20289;-82
2022/07/25 04:41:11;;;;;;;10.02;6.05;;;26.80;78.00;;;;;;5046106;28;20199;-82
2022/07/25 04:43:40;;;;;;;10.15;5.82;;;26.80;78.00;;;;;;5037932;28;20796;-81
2022/07/25 04:46:18;;;;;;;9.15;5.82;;;26.90;78.30;;;;;;5038100;28;20239;-82
2022/07/25 04:48:47;;;;;;;7.38;5.65;;;26.90;78.30;;;;;;5040840;28;20199;-81
2022/07/25 04:51:16;;;;;;;11.98;6.30;;;26.90;78.30;;;;;;5037598;28;20206;-80
2022/07/25 04:53:46;;;;;;;9.43;6.30;;;26.90;78.40;;;;;;5036113;28;20191;-79
2022/07/25 04:56:15;;;;;;;10.40;5.95;;;26.90;78.40;;;;;;5037644;28;20229;-78
2022/07/25 04:58:48;;;;;;;8.38;5.97;;;26.90;78.60;;;;;;5049232;28;20285;-79
2022/07/25 05:01:17;;;;;;;10.52;6.47;;;26.90;78.50;;;;;;5034919;28;20199;-78
2022/07/25 05:03:45;;;;;;;9.05;5.65;;;26.90;78.40;;;;;;5048404;28;20194;-78
2022/07/25 05:06:17;;;;;;;11.95;6.93;;;26.90;78.40;;;;;;5035555;28;20393;-79
2022/07/25 05:08:47;;;;;;;11.32;6.80;;;26.90;78.80;;;;;;5051302;28;20206;-79
2022/07/25 05:11:16;;;;;;;8.77;6.15;;;26.90;78.70;;;;;;5036345;28;20202;-79
2022/07/25 05:13:44;;;;;;;10.25;6.50;;;26.90;79.00;;;;;;5036421;28;20282;-79
2022/07/25 05:16:12;;;;;;;9.18;6.22;;;26.90;78.80;;;;;;5039627;28;20865;-78
2022/07/25 05:18:41;;;;;;;11.38;7.75;;;26.90;78.80;;;;;;5043864;28;20748;-79
2022/07/25 05:21:11;;;;;;;10.30;7.40;;;26.90;78.80;;;;;;5034936;28;20202;-77
2022/07/25 05:23:39;;;;;;;12.15;6.50;;;26.90;78.80;;;;;;5034253;28;20250;-79
2022/07/25 05:26:09;;;;;;;9.15;6.20;;;27.00;78.90;;;;;;5040551;28;20195;-78
2022/07/25 05:28:37;;;;;;;12.88;7.15;;;27.00;78.80;;;;;;5043625;28;20195;-78
2022/07/25 05:31:06;;;;;;;11.68;6.53;;;27.10;78.80;;;;;;5048279;28;20202;-80
2022/07/25 05:33:35;;;;;;;12.77;6.78;;;27.10;78.80;;;;;;5052940;28;20215;-80
2022/07/25 05:36:04;;;;;;;13.43;6.65;;;27.20;79.10;;;;;;5042460;28;20791;-78
2022/07/25 05:38:33;;;;;;;10.98;6.72;;;27.20;78.80;;;;;;5046524;28;20195;-79
2022/07/25 05:41:01;;;;;;;11.07;6.13;;;27.20;78.50;;;;;;5049911;28;20233;-80
2022/07/25 05:43:32;;;;;;;11.75;6.68;;;27.20;78.20;;;;;;5056935;28;20213;-80
2022/07/25 05:46:01;;;;;;;8.95;5.97;;;27.30;77.90;;;;;;5050094;28;20211;-77
2022/07/25 05:48:30;;;;;;;9.40;6.20;;;27.30;77.90;;;;;;5045428;28;20191;-79
2022/07/25 05:50:59;;;;;;;9.23;6.50;;;27.40;77.70;;;;;;5047138;28;20273;-79
2022/07/25 05:53:27;;;;;;;11.07;6.82;;;27.40;76.60;;;;;;5044685;28;20688;-80
2022/07/25 05:55:55;;;;;;;10.35;6.32;;;27.50;75.60;;;;;;5055880;28;20225;-81
2022/07/25 05:58:24;;;;;;;8.38;6.03;;;27.50;75.70;;;;;;5059082;28;20195;-79
2022/07/25 06:00:58;;;;;;;10.50;6.68;;;27.60;75.50;;;;;;5036307;28;20195;-79
2022/07/25 06:03:27;;;;;;;9.10;5.93;;;27.60;75.30;;;;;;5044036;28;20237;-78
2022/07/25 06:05:56;;;;;;;9.23;6.25;;;27.70;75.20;;;;;;5031060;28;20238;-79
2022/07/25 06:08:27;;;;;;;10.57;6.57;;;27.70;74.60;;;;;;5053712;28;20830;-78
2022/07/25 06:10:57;;;;;;;7.15;5.45;;;27.80;73.90;;;;;;5050024;28;20214;-78
2022/07/25 06:13:25;;;;;;;7.72;6.03;;;27.90;73.70;;;;;;5046561;28;20217;-80
2022/07/25 06:15:55;;;;;;;11.40;6.38;;;27.90;72.70;;;;;;5048292;28;20220;-78
2022/07/25 06:18:25;;;;;;;8.15;5.88;;;28.00;72.30;;;;;;5047981;28;20203;-77
2022/07/25 06:20:53;;;;;;;9.05;6.18;;;28.00;72.10;;;;;;5038681;28;20195;-76
2022/07/25 06:23:22;;;;;;;11.55;6.75;;;28.10;72.30;;;;;;5055770;28;20285;-79
2022/07/25 06:25:54;;;;;;;9.20;5.57;;;28.20;72.20;;;;;;5057980;28;20218;-79
2022/07/25 06:28:23;;;;;;;11.13;6.25;;;28.20;72.10;;;;;;5061175;28;20237;-77
2022/07/25 06:30:51;;;;;;;7.60;5.03;;;28.30;70.80;;;;;;5046541;28;20195;-82
2022/07/25 06:33:20;;;;;;;7.90;5.07;;;28.30;70.00;;;;;;5055495;28;20213;-78
2022/07/25 06:35:49;;;;;;;6.63;4.88;;;28.40;69.50;;;;;;5044025;28;20219;-80
2022/07/25 06:38:18;;;;;;;9.10;5.28;;;28.40;68.70;;;;;;5037118;28;20573;-80
2022/07/25 06:40:46;;;;;;;12.10;5.53;;;28.50;67.90;;;;;;5056330;28;20202;-80
2022/07/25 06:43:15;;;;;;;8.52;4.95;;;28.60;69.40;;;;;;5047582;28;20199;-78
2022/07/25 06:45:46;;;;;;;10.98;4.80;;;28.70;68.40;;;;;;5039181;28;20202;-79
2022/07/25 06:48:15;;;;;;;6.40;4.68;;;28.70;68.30;;;;;;5046453;28;20191;-79
2022/07/25 06:50:43;;;;;;;6.63;4.50;;;28.80;67.80;;;;;;5046554;28;20195;-75
2022/07/25 06:53:13;;;;;;;6.57;4.60;;;28.90;67.30;;;;;;5046137;28;20206;-75
2022/07/25 06:55:42;;;;;;;7.10;4.40;;;28.90;66.00;;;;;;5040695;28;20202;-81
2022/07/25 06:58:10;;;;;;;11.00;4.15;;;28.90;64.70;;;;;;5035134;28;20198;-77
2022/07/25 07:00:39;;;;;;;5.53;3.80;;;28.90;64.00;;;;;;5042608;28;20209;-74
2022/07/25 07:03:07;;;;;;;5.10;3.72;;;29.00;63.30;;;;;;5048452;28;20206;-78
2022/07/25 07:05:36;;;;;;;5.88;3.53;;;29.00;63.60;;;;;;5047363;28;20223;-77
2022/07/25 07:08:05;;;;;;;5.07;3.67;;;29.10;63.70;;;;;;5046181;28;20199;-75
2022/07/25 07:10:35;;;;;;;5.40;3.97;;;29.10;62.50;;;;;;5046995;28;20645;-77
2022/07/25 07:13:06;;;;;;;5.13;3.78;;;29.10;62.10;;;;;;5046749;28;20206;-76
2022/07/25 07:15:35;;;;;;;5.47;3.20;;;29.10;61.90;;;;;;5049321;28;20190;-77
2022/07/25 07:18:05;;;;;;;5.55;3.15;;;29.10;61.40;;;;;;5059644;28;20344;-77
2022/07/25 07:20:34;;;;;;;4.55;3.53;;;29.20;61.70;;;;;;5062019;28;20306;-78
2022/07/25 07:23:02;;;;;;;7.50;3.80;;;29.20;62.20;;;;;;5050485;28;20199;-76
2022/07/25 07:25:31;;;;;;;7.47;3.30;;;29.30;62.50;;;;;;5044841;28;20195;-74
2022/07/25 07:28:00;;;;;;;7.38;3.63;;;29.30;61.60;;;;;;5046302;28;20203;-76
2022/07/25 07:30:29;;;;;;;4.72;3.15;;;29.40;61.70;;;;;;5046916;28;20207;-76
2022/07/25 07:33:17;;;;;;;4.28;3.35;;;29.40;61.10;;;;;;5046889;28;20239;-76
2022/07/25 07:35:46;;;;;;;5.63;3.28;;;29.40;61.30;;;;;;5050203;28;20278;-77
2022/07/25 07:38:14;;;;;;;5.32;2.97;;;29.40;61.30;;;;;;5047340;28;21015;-77
2022/07/25 07:40:42;;;;;;;6.07;3.13;;;29.50;61.30;;;;;;5058659;28;20209;-79
2022/07/25 07:43:12;;;;;;;16.35;3.50;;;29.60;60.80;;;;;;5049434;28;20194;-78
2022/07/25 07:45:43;;;;;;;4.82;3.00;;;29.60;60.80;;;;;;5054752;28;20214;-75
2022/07/25 07:48:12;;;;;;;8.45;3.30;;;29.70;60.70;;;;;;5045673;28;20194;-76
2022/07/25 07:50:40;;;;;;;5.25;2.95;;;29.70;60.50;;;;;;5057002;28;20913;-76
2022/07/25 07:53:09;;;;;;;4.75;3.38;;;29.80;60.40;;;;;;5051621;28;20285;-77
2022/07/25 07:55:47;;;;;;;5.03;3.33;;;29.80;59.30;;;;;;5046624;28;20199;-74
2022/07/25 07:58:18;;;;;;;7.45;3.85;;;29.90;59.50;;;;;;5044293;28;20238;-74
2022/07/25 08:00:50;;;;;;;5.75;3.42;;;29.90;59.70;;;;;;5045667;28;20193;-74
2022/07/25 08:03:20;;;;;;;6.82;3.08;;;30.00;59.60;;;;;;5052814;28;20745;-74
2022/07/25 08:05:50;;;;;;;4.00;3.05;;;30.00;59.60;;;;;;5038854;28;20226;-74
2022/07/25 08:08:19;;;;;;;5.15;3.00;;;30.00;59.30;;;;;;5039909;28;20198;-76
2022/07/25 08:10:48;;;;;;;5.25;3.00;;;30.10;58.80;;;;;;5037721;28;20203;-75
2022/07/25 08:13:20;;;;;;;6.43;3.08;;;30.10;59.00;;;;;;5040544;28;20954;-74
2022/07/25 08:15:52;;;;;;;4.20;2.97;;;30.10;58.70;;;;;;5048736;28;20282;-74
2022/07/25 08:18:20;;;;;;;5.13;3.35;;;30.20;58.70;;;;;;5038176;28;20235;-75
2022/07/25 08:20:50;;;;;;;7.85;2.80;;;30.30;58.50;;;;;;5042900;28;20195;-75
2022/07/25 08:23:19;;;;;;;9.45;3.05;;;30.30;58.50;;;;;;5054885;28;20206;-74
2022/07/25 08:25:48;;;;;;;5.13;2.90;;;30.30;58.10;;;;;;5046315;28;21025;-77
2022/07/25 08:28:18;;;;;;;5.22;3.00;;;30.40;57.90;;;;;;5051388;28;20191;-75
2022/07/25 08:30:46;;;;;;;4.25;3.00;;;30.40;57.50;;;;;;5052276;28;20198;-75
2022/07/25 08:33:15;;;;;;;4.93;2.97;;;30.40;57.30;;;;;;5060139;28;20202;-77
2022/07/25 08:35:48;;;;;;;5.35;2.85;;;30.50;57.40;;;;;;5040488;28;20998;-77
2022/07/25 08:38:19;;;;;;;2.90;2.20;;;30.50;56.70;;;;;;5039466;28;20666;-76
2022/07/25 08:40:48;;;;;;;6.18;3.03;;;30.50;56.80;;;;;;5042548;28;20199;-74
2022/07/25 08:43:18;;;;;;;5.90;2.55;;;30.50;56.20;;;;;;5034484;28;20199;-76
2022/07/25 08:45:48;;;;;;;5.22;2.70;;;30.50;55.80;;;;;;5039498;28;20201;-75
2022/07/25 08:48:18;;;;;;;3.65;2.53;;;30.60;56.10;;;;;;5046151;28;20847;-79
2022/07/25 08:50:48;;;;;;;8.80;2.65;;;30.60;56.30;;;;;;5039236;28;20195;-75
2022/07/25 08:53:18;;;;;;;8.52;3.20;;;30.70;56.60;;;;;;5038926;28;20214;-77
2022/07/25 08:56:04;;;;;;;5.57;3.17;;;30.70;56.50;;;;;;5039159;28;20195;-77
2022/07/25 08:58:42;;;;;;;4.95;2.97;;;30.70;55.80;;;;;;5040963;28;20663;-76
2022/07/25 09:01:11;;;;;;;4.95;3.00;;;30.80;56.10;;;;;;5036005;28;20198;-75
2022/07/25 09:03:41;;;;;;;4.70;3.03;;;30.90;56.10;;;;;;5046411;28;20198;-77
2022/07/25 09:06:18;;;;;;;4.15;2.53;;;30.90;55.50;;;;;;5036151;28;20312;-74
2022/07/25 09:08:58;;;;;;;5.30;2.50;;;30.90;55.70;;;;;;5043320;28;20197;-75
2022/07/25 09:11:31;;;;;;;3.85;2.72;;;31.00;55.40;;;;;;5040146;28;20649;-74
2022/07/25 09:14:06;;;;;;;7.55;2.80;;;31.00;55.20;;;;;;5046759;28;20209;-76
2022/07/25 09:16:37;;;;;;;3.30;2.38;;;31.00;55.30;;;;;;5042820;28;20245;-74
2022/07/25 09:19:10;;;;;;;5.15;2.83;;;31.10;54.80;;;;;;5044968;28;20880;-75
2022/07/25 09:21:40;;;;;;;3.83;2.70;;;31.10;54.10;;;;;;5040421;28;20187;-75
2022/07/25 09:24:11;;;;;;;3.83;2.80;;;31.10;54.00;;;;;;5042588;28;20210;-76
2022/07/25 09:26:50;;;;;;;3.67;2.78;;;31.10;54.10;;;;;;5047141;28;20221;-76
2022/07/25 09:30:20;;;;;;;5.45;2.80;;;31.20;54.30;;;;;;5033467;28;20190;-74
2022/07/25 09:33:01;;;;;;;6.40;2.95;;;31.20;53.50;;;;;;5034545;28;20629;-78
2022/07/25 09:35:36;;;;;;;4.97;3.05;;;31.30;54.10;;;;;;5036771;28;20436;-77
2022/07/25 09:38:12;;;;;;;6.43;3.22;;;31.30;54.20;;;;;;5041448;28;20221;-79
2022/07/25 09:40:41;;;;;;;3.58;2.45;;;31.40;54.30;;;;;;5033045;28;20195;-76
2022/07/25 09:43:10;;;;;;;4.95;2.58;;;31.40;54.00;;;;;;5036147;28;20191;-77
2022/07/25 09:45:49;;;;;;;4.88;3.00;;;31.50;53.90;;;;;;5035505;28;20211;-74
2022/07/25 09:48:20;;;;;;;4.03;2.80;;;31.50;54.30;;;;;;5041657;28;20603;-77
2022/07/25 09:50:48;;;;;;;4.10;2.35;;;31.60;54.10;;;;;;5047690;28;20205;-77
2022/07/25 09:53:17;;;;;;;8.82;3.15;;;31.60;53.90;;;;;;5047309;28;20199;-77
2022/07/25 09:55:46;;;;;;;4.47;2.85;;;31.70;54.10;;;;;;5037285;28;20617;-75
2022/07/25 09:58:14;;;;;;;3.45;2.35;;;31.70;53.90;;;;;;5041517;28;20211;-76
2022/07/25 10:00:43;;;;;;;8.25;3.35;;;31.80;53.40;;;;;;5045691;28;20200;-76
2022/07/25 10:03:35;;;;;;;5.47;3.10;;;31.80;53.40;;;;;;5037566;28;20814;-75
2022/07/25 10:06:14;;;;;;;4.93;2.60;;;31.90;53.30;;;;;;5023374;28;20792;-75
2022/07/25 10:08:43;;;;;;;4.30;2.75;;;31.90;53.40;;;;;;5016477;28;20275;-75
2022/07/25 10:11:23;;;;;;;5.05;2.85;;;32.00;53.10;;;;;;5008458;28;20208;-76
2022/07/25 10:13:52;;;;;;;6.47;3.03;;;32.10;52.80;;;;;;5018040;28;20736;-76
2022/07/25 10:16:23;;;;;;;9.13;3.38;;;32.10;52.80;;;;;;5011870;28;20208;-77
2022/07/25 10:18:54;;;;;;;6.90;3.35;;;32.10;52.80;;;;;;5016294;28;20218;-78
2022/07/25 10:21:24;;;;;;;5.13;3.15;;;32.20;52.70;;;;;;5017373;28;20200;-78
2022/07/25 10:24:02;;;;;;;5.05;3.17;;;32.20;52.50;;;;;;5014744;28;20188;-77
2022/07/25 10:26:33;;;;;;;7.35;2.78;;;32.30;51.90;;;;;;5020691;28;20195;-77
2022/07/25 10:29:01;;;;;;;6.15;2.88;;;32.30;51.90;;;;;;5018288;28;20196;-76
2022/07/25 10:31:36;;;;;;;4.55;3.05;;;32.40;52.10;;;;;;5023220;28;20204;-77
2022/07/25 10:34:08;;;;;;;4.85;3.10;;;32.40;52.10;;;;;;5012407;28;20633;-77
2022/07/25 10:36:43;;;;;;;5.80;3.00;;;32.50;52.30;;;;;;5014651;28;20188;-77
2022/07/25 10:39:14;;;;;;;6.03;3.13;;;32.60;51.70;;;;;;5020780;28;20673;-79
2022/07/25 10:41:51;;;;;;;4.45;3.00;;;32.70;51.50;;;;;;5019558;28;20199;-77
2022/07/25 10:44:20;;;;;;;3.33;2.53;;;32.70;51.50;;;;;;5019307;28;20192;-78
2022/07/25 10:46:49;;;;;;;6.90;3.30;;;32.70;51.30;;;;;;5027530;28;20223;-77
2022/07/25 10:49:21;;;;;;;6.60;3.10;;;32.70;50.50;;;;;;5025370;28;20220;-76
2022/07/25 10:52:01;;;;;;;5.07;2.92;;;32.70;50.20;;;;;;5027391;28;20191;-77
2022/07/25 10:54:34;;;;;;;6.10;3.15;;;32.80;50.50;;;;;;5028949;28;20215;-78
2022/07/25 10:57:04;;;;;;;5.13;3.00;;;32.70;50.60;;;;;;5025291;28;20196;-76
2022/07/25 10:59:35;;;;;;;5.43;3.30;;;32.80;50.60;;;;;;5013829;28;20216;-75
2022/07/25 11:02:07;;;;;;;6.47;3.10;;;32.90;50.70;;;;;;5017185;28;20219;-77
2022/07/25 11:04:37;;;;;;;5.63;3.10;;;33.00;50.70;;;;;;5023014;28;20266;-80
2022/07/25 11:07:09;;;;;;;5.65;3.30;;;33.00;50.70;;;;;;5031341;28;20196;-80
2022/07/25 11:09:38;;;;;;;5.30;3.40;;;33.10;51.30;;;;;;5018395;28;20291;-78
2022/07/25 11:12:07;;;;;;;5.80;3.85;;;33.10;50.10;;;;;;5021444;28;20195;-81
2022/07/25 11:14:40;;;;;;;5.05;3.13;;;33.10;50.30;;;;;;5016622;28;20195;-79
2022/07/25 11:17:17;;;;;;;5.32;3.33;;;33.20;50.10;;;;;;5019003;28;20201;-79
2022/07/25 11:19:54;;;;;;;4.95;2.95;;;33.30;50.20;;;;;;5020647;28;20215;-79
2022/07/25 11:22:23;;;;;;;6.50;3.03;;;33.30;49.90;;;;;;5020733;28;20207;-81
2022/07/25 11:24:52;;;;;;;7.82;3.30;;;33.30;50.10;;;;;;5023275;28;20262;-78
2022/07/25 11:27:22;;;;;;;5.53;3.10;;;33.40;49.70;;;;;;5027051;28;20591;-79
2022/07/25 11:29:50;;;;;;;5.97;3.40;;;33.40;49.20;;;;;;5026066;28;20189;-79
2022/07/25 11:32:19;;;;;;;5.18;3.20;;;33.40;49.20;;;;;;5021326;28;20255;-79
2022/07/25 11:34:53;;;;;;;3.95;2.95;;;33.40;49.00;;;;;;5017689;28;20195;-79
2022/07/25 11:37:21;;;;;;;5.13;2.97;;;33.50;49.30;;;;;;5026456;28;20194;-77
2022/07/25 11:39:51;;;;;;;5.38;3.38;;;33.50;49.30;;;;;;5024116;28;20226;-79
2022/07/25 11:42:21;;;;;;;6.22;4.00;;;33.60;49.30;;;;;;5012443;28;20200;-79
2022/07/25 11:44:51;;;;;;;4.05;3.38;;;33.60;49.30;;;;;;5019537;28;20841;-79
2022/07/25 11:47:24;;;;;;;5.30;3.60;;;33.60;49.20;;;;;;5019491;28;20196;-79
2022/07/25 11:49:57;;;;;;;4.57;3.40;;;33.70;48.90;;;;;;5015851;28;20193;-78
2022/07/25 11:52:28;;;;;;;8.20;3.50;;;33.70;48.60;;;;;;5018276;28;20280;-79
2022/07/25 11:54:58;;;;;;;6.20;3.22;;;33.70;48.60;;;;;;5023509;28;20227;-79
2022/07/25 11:57:30;;;;;;;4.25;3.08;;;33.80;49.00;;;;;;5017535;28;20207;-80
2022/07/25 12:00:00;;;;;;;5.70;3.08;;;33.80;49.80;;;;;;5031514;28;20214;-79
2022/07/25 12:02:30;;;;;;;7.53;3.38;;;33.90;49.00;;;;;;5020676;28;20660;-80
2022/07/25 12:05:03;;;;;;;5.00;3.10;;;34.00;48.60;;;;;;5018945;28;20231;-79
2022/07/25 12:07:43;;;;;;;4.22;2.97;;;34.00;48.30;;;;;;5047160;28;20559;-79
2022/07/25 12:10:16;;;;;;;5.60;3.00;;;34.00;49.10;;;;;;5040530;28;20619;-79
2022/07/25 12:12:51;;;;;;;6.22;3.45;;;34.00;48.40;;;;;;5043264;28;20199;-80
2022/07/25 12:15:22;;;;;;;5.75;3.20;;;33.90;48.50;;;;;;5051679;28;20186;-79
2022/07/25 12:17:52;;;;;;;6.10;3.55;;;33.90;49.20;;;;;;5053439;28;20203;-80
2022/07/25 12:20:27;;;;;;;5.05;3.53;;;33.90;48.40;;;;;;5048324;28;20290;-79
2022/07/25 12:22:56;;;;;;;6.05;3.25;;;33.80;48.50;;;;;;5052338;28;20650;-78
2022/07/25 12:25:26;;;;;;;6.80;3.50;;;33.80;48.50;;;;;;5043780;28;20203;-80
2022/07/25 12:27:59;;;;;;;4.97;3.38;;;33.80;48.60;;;;;;5051374;28;20704;-80
2022/07/25 12:30:29;;;;;;;5.90;3.33;;;33.80;48.70;;;;;;5052059;28;20202;-78
2022/07/25 12:32:58;;;;;;;3.90;3.03;;;33.90;49.50;;;;;;5044191;28;20202;-77
2022/07/25 12:35:29;;;;;;;5.70;3.38;;;33.90;48.50;;;;;;5047486;28;20835;-79
2022/07/25 12:37:58;;;;;;;6.90;3.42;;;33.90;48.20;;;;;;5040846;28;20199;-78
2022/07/25 12:40:26;;;;;;;4.88;3.55;;;34.00;48.90;;;;;;5043255;28;20238;-78
2022/07/25 12:42:56;;;;;;;7.47;3.90;;;34.00;48.30;;;;;;5047128;28;20215;-77
2022/07/25 12:45:24;;;;;;;7.28;3.50;;;34.00;48.00;;;;;;5046757;28;20915;-77
2022/07/25 12:47:53;;;;;;;6.35;3.60;;;34.00;48.00;;;;;;5040029;28;20195;-78
2022/07/25 12:50:24;;;;;;;7.00;3.50;;;33.90;48.00;;;;;;5044901;28;20202;-79
2022/07/25 12:52:54;;;;;;;5.00;3.50;;;34.00;47.90;;;;;;5034223;28;20265;-78
2022/07/25 12:55:23;;;;;;;5.60;3.80;;;33.90;47.90;;;;;;5038561;28;20206;-77
2022/07/25 12:57:51;;;;;;;5.10;3.42;;;33.90;47.70;;;;;;5046274;28;20195;-76
2022/07/25 13:00:21;;;;;;;5.05;3.40;;;33.90;47.60;;;;;;5043291;28;20225;-76
2022/07/25 13:02:51;;;;;;;5.80;3.90;;;33.90;47.30;;;;;;5036560;28;20203;-77